Time;durP1;ratioP1;P1;durP2;ratioP2;P2;SDS_P1;SDS_P2;PMS_P1;PMS_P2;Temp;Humidity;BMP_temperature;BMP_pressure;BME280_temperature;BME280_humidity;BME280_pressure;Samples;Min_cycle;Max_cycle;Signal;HPM_P1;HPM_P2
2021/04/11 00:01:36;;;;;;;24.08;15.50;;;256.50;1484.80;;;;;;5053883;28;20055;-69
2021/04/11 00:04:03;;;;;;;37.03;20.10;;;256.50;1459.20;;;;;;5054085;28;20552;-70
2021/04/11 00:06:29;;;;;;;44.08;29.95;;;256.60;1433.60;;;;;;5056228;28;20037;-69
2021/04/11 00:08:55;;;;;;;41.03;27.15;;;256.70;1433.60;;;;;;5055952;28;20493;-69
2021/04/11 00:11:22;;;;;;;34.88;24.58;;;281.70;1433.60;;;;;;5056188;28;20032;-69
2021/04/11 00:13:51;;;;;;;46.90;28.42;;;281.90;1408.00;;;;;;5055674;28;20383;-68
2021/04/11 00:16:18;;;;;;;27.20;18.35;;;256.80;1433.60;;;;;;5055993;28;20162;-69
2021/04/11 00:18:43;;;;;;;29.70;18.20;;;256.50;1484.80;;;;;;5055731;28;20106;-68
2021/04/11 00:21:10;;;;;;;29.55;17.00;;;256.40;1484.80;;;;;;5055923;28;20098;-69
2021/04/11 00:23:36;;;;;;;18.17;11.90;;;256.50;1459.20;;;;;;5055922;28;20036;-69
2021/04/11 00:26:04;;;;;;;20.58;12.05;;;256.40;1484.80;;;;;;5055393;28;20144;-70
2021/04/11 00:28:29;;;;;;;29.02;19.23;;;256.20;1484.80;;;;;;5055680;28;20494;-70
2021/04/11 00:30:55;;;;;;;33.60;22.25;;;256.10;1510.40;;;;;;5055621;28;20029;-70
2021/04/11 00:33:36;;;;;;;22.08;15.55;;;256.30;1484.80;;;;;;5055718;28;20037;-72
2021/04/11 00:36:06;;;;;;;31.77;22.23;;;256.40;1459.20;;;;;;5055522;28;20023;-69
2021/04/11 00:38:32;;;;;;;27.25;16.85;;;256.40;1459.20;;;;;;5055634;28;20025;-70
2021/04/11 00:41:02;;;;;;;49.20;33.45;;;256.50;1459.20;;;;;;5055025;28;20025;-69
2021/04/11 00:43:28;;;;;;;19.60;11.80;;;256.90;1408.00;;;;;;5055477;28;20025;-68
2021/04/11 00:46:06;;;;;;;27.98;18.13;;;256.40;1459.20;;;;;;5055275;28;20039;-69
2021/04/11 00:48:33;;;;;;;27.73;16.35;;;256.30;1459.20;;;;;;5054892;28;20028;-68
2021/04/11 00:51:08;;;;;;;32.05;17.63;;;256.50;1433.60;;;;;;5055109;28;20099;-69
2021/04/11 00:53:34;;;;;;;19.30;12.07;;;256.30;1459.20;;;;;;5055086;28;20033;-69
2021/04/11 00:56:02;;;;;;;25.15;15.20;;;231.20;1510.40;;;;;;5037105;28;20082;-68
2021/04/11 00:58:30;;;;;;;23.63;15.63;;;256.20;1484.80;;;;;;5055204;28;20027;-67
2021/04/11 01:00:56;;;;;;;21.02;13.70;;;256.30;1484.80;;;;;;5052863;28;20048;-69
2021/04/11 01:03:25;;;;;;;37.05;23.23;;;231.30;1510.40;;;;;;5036314;28;20014;-69
2021/04/11 01:05:52;;;;;;;24.38;16.67;;;256.10;1484.80;;;;;;5053487;28;20033;-69
2021/04/11 01:08:22;;;;;;;32.10;20.67;;;256.00;1510.40;;;;;;5051481;28;20064;-69
2021/04/11 01:10:55;;;;;;;28.83;16.75;;;256.30;1484.80;;;;;;5054932;28;20032;-69
2021/04/11 01:13:21;;;;;;;20.48;14.02;;;;;;;;;;5054122;28;20025;-70
2021/04/11 01:15:48;;;;;;;26.25;16.20;;;256.70;1433.60;;;;;;5054582;28;20025;-73
2021/04/11 01:18:14;;;;;;;17.17;11.50;;;256.90;1408.00;;;;;;5054827;28;20017;-72
2021/04/11 01:20:41;;;;;;;25.88;17.13;;;256.80;1408.00;;;;;;5054383;28;20025;-71
2021/04/11 01:23:28;;;;;;;38.05;24.63;;;256.90;1408.00;;;;;;5054680;28;20385;-74
2021/04/11 01:25:58;;;;;;;29.48;19.38;;;256.80;1408.00;;;;;;5036197;28;20071;-70
2021/04/11 01:28:30;;;;;;;34.78;22.05;;;256.80;1433.60;;;;;;5054739;28;20067;-73
2021/04/11 01:30:57;;;;;;;;;;;256.60;1433.60;;;;;;5054822;28;20027;-71
2021/04/11 01:33:27;;;;;;;25.75;15.45;;;256.90;1408.00;;;;;;5054693;28;19911;-71
2021/04/11 01:35:56;;;;;;;23.35;14.50;;;256.80;1408.00;;;;;;5054468;28;20078;-72
2021/04/11 01:38:23;;;;;;;38.13;20.98;;;256.90;1408.00;;;;;;5036817;28;20029;-71
2021/04/11 01:41:07;;;;;;;27.35;17.27;;;;;;;;;;5054443;28;20056;-72
2021/04/11 01:43:37;;;;;;;31.83;19.58;;;256.70;1433.60;;;;;;5036551;28;20047;-70
2021/04/11 01:46:08;;;;;;;26.83;16.85;;;256.80;1433.60;;;;;;5054187;28;20037;-70
2021/04/11 01:48:35;;;;;;;33.15;25.08;;;256.90;1408.00;;;;;;5054345;28;20025;-70
2021/04/11 01:51:03;;;;;;;40.40;34.28;;;256.50;1459.20;;;;;;5054210;28;20053;-70
2021/04/11 01:53:30;;;;;;;23.77;17.02;;;256.70;1433.60;;;;;;5054226;28;20100;-70
2021/04/11 01:55:56;;;;;;;22.88;12.00;;;256.60;1433.60;;;;;;5053997;28;20029;-70
2021/04/11 01:58:23;;;;;;;15.57;10.15;;;256.50;1459.20;;;;;;5054089;28;20029;-71
2021/04/11 02:00:59;;;;;;;19.52;10.73;;;256.60;1433.60;;;;;;5053899;28;20025;-73
2021/04/11 02:03:25;;;;;;;19.73;10.60;;;256.60;1433.60;;;;;;5036318;28;20027;-70
2021/04/11 02:05:52;;;;;;;18.58;11.70;;;256.20;1484.80;;;;;;5053642;28;20037;-70
2021/04/11 02:08:25;;;;;;;17.52;11.38;;;256.10;1510.40;;;;;;5054003;28;20018;-71
2021/04/11 02:10:54;;;;;;;18.75;10.98;;;231.10;1561.60;;;;;;5053831;28;20017;-73
2021/04/11 02:13:27;;;;;;;21.42;13.25;;;230.90;1587.20;;;;;;5053914;28;20021;-73
2021/04/11 02:15:57;;;;;;;25.33;14.45;;;231.20;1536.00;;;;;;5053694;28;20032;-71
2021/04/11 02:18:24;;;;;;;15.35;9.65;;;;;;;;;;5053526;28;20025;-70
2021/04/11 02:20:55;;;;;;;15.20;9.38;;;230.90;1587.20;;;;;;5053462;28;20044;-69
2021/04/11 02:23:22;;;;;;;16.17;9.63;;;230.60;1612.80;;;;;;5053762;28;20025;-69
2021/04/11 02:25:50;;;;;;;23.83;12.60;;;;;;;;;;5052163;28;20048;-70
2021/04/11 02:28:18;;;;;;;30.38;19.00;;;231.20;1536.00;;;;;;5053475;28;20017;-71
2021/04/11 02:31:18;;;;;;;17.17;12.05;;;256.10;1510.40;;;;;;5053460;28;20036;-70
2021/04/11 02:33:55;;;;;;;17.55;10.55;;;256.20;1510.40;;;;;;4963108;28;20529;-71
2021/04/11 02:36:22;;;;;;;14.02;9.05;;;;;;;;;;4972628;28;20065;-72
2021/04/11 02:38:52;;;;;;;17.65;10.05;;;256.20;1689.60;;;;;;4981476;28;20090;-71
2021/04/11 02:41:19;;;;;;;20.33;10.95;;;;;;;;;;4975499;28;20042;-71
2021/04/11 02:43:45;;;;;;;21.65;11.10;;;;;;;;;;4958777;28;20035;-69
2021/04/11 02:46:13;;;;;;;21.63;11.85;;;256.30;1459.20;;;;;;4972196;28;20037;-68
2021/04/11 02:48:41;;;;;;;18.55;10.70;;;;;;;;;;4982235;28;20059;-70
2021/04/11 02:51:07;;;;;;;21.15;11.48;;;;;;;;;;4955988;28;20178;-69
2021/04/11 02:53:35;;;;;;;20.67;12.35;;;231.10;1561.60;;;;;;4971989;28;20027;-69
2021/04/11 02:56:01;;;;;;;22.00;11.80;;;230.90;1587.20;;;;;;4971860;28;20093;-70
2021/04/11 02:58:28;;;;;;;20.73;12.20;;;230.60;1638.40;;;;;;4972137;28;20069;-70
2021/04/11 03:01:03;;;;;;;15.35;10.68;;;230.70;1638.40;;;;;;4972064;28;20505;-69
2021/04/11 03:03:29;;;;;;;22.67;13.77;;;231.10;1561.60;;;;;;4972212;28;20450;-68
2021/04/11 03:06:00;;;;;;;19.77;11.50;;;;;;;;;;4971557;28;20461;-69
2021/04/11 03:08:29;;;;;;;16.05;10.63;;;;;;;;;;4972041;28;20033;-69
2021/04/11 03:11:02;;;;;;;17.35;10.77;;;;;;;;;;5040416;28;20040;-69
2021/04/11 03:13:28;;;;;;;17.85;10.63;;;231.30;1536.00;;;;;;5034850;28;20024;-68
2021/04/11 03:15:56;;;;;;;19.23;11.25;;;231.20;1536.00;;;;;;5052314;28;20468;-69
2021/04/11 03:18:23;;;;;;;21.25;12.23;;;256.10;1510.40;;;;;;5052605;28;20109;-70
2021/04/11 03:20:49;;;;;;;21.35;12.55;;;256.20;1510.40;;;;;;5052042;28;20032;-70
2021/04/11 03:23:17;;;;;;;20.50;13.15;;;256.00;1536.00;;;;;;5052599;28;20036;-69
2021/04/11 03:25:43;;;;;;;18.95;12.43;;;256.20;1510.40;;;;;;5052010;28;20036;-68
2021/04/11 03:28:23;;;;;;;21.58;12.05;;;256.40;1484.80;;;;;;5052603;28;20025;-67
2021/04/11 03:31:15;;;;;;;21.15;12.73;;;256.50;1510.40;;;;;;5035129;28;20036;-68
2021/04/11 03:33:46;;;;;;;21.05;12.63;;;256.20;1868.80;;;;;;5052390;28;20025;-66
2021/04/11 03:36:15;;;;;;;30.17;16.85;;;;;;;;;;5051999;28;20040;-68
2021/04/11 03:38:41;;;;;;;24.80;14.05;;;;;;;;;;5052352;28;20023;-68
2021/04/11 03:41:08;;;;;;;21.27;13.98;;;256.00;1510.40;;;;;;5052113;28;20116;-67
2021/04/11 03:43:44;;;;;;;24.38;13.23;;;256.00;1536.00;;;;;;5052313;28;20032;-67
2021/04/11 03:46:26;;;;;;;21.90;13.40;;;231.20;1561.60;;;;;;5052115;28;20056;-68
2021/04/11 03:49:02;;;;;;;27.55;14.00;;;231.30;1536.00;;;;;;5051713;28;20041;-67
2021/04/11 03:51:31;;;;;;;29.33;15.38;;;256.00;1536.00;;;;;;5043730;28;20041;-70
2021/04/11 03:54:10;;;;;;;30.52;18.13;;;256.20;1536.00;;;;;;5050608;28;20013;-70
2021/04/11 03:56:40;;;;;;;30.13;19.65;;;256.30;1510.40;;;;;;5033991;28;20017;-73
2021/04/11 03:59:07;;;;;;;26.20;15.90;;;256.50;1484.80;;;;;;5052088;28;20036;-69
2021/04/11 04:01:40;;;;;;;23.10;13.98;;;256.30;1484.80;;;;;;5051853;28;20064;-72
2021/04/11 04:04:12;;;;;;;36.97;16.40;;;256.30;1484.80;;;;;;5051903;28;20021;-73
2021/04/11 04:06:38;;;;;;;24.17;16.33;;;256.20;1484.80;;;;;;5052067;28;20033;-72
2021/04/11 04:09:05;;;;;;;27.45;15.52;;;256.30;1484.80;;;;;;5049190;28;20024;-73
2021/04/11 04:11:58;;;;;;;29.13;16.10;;;256.20;1484.80;;;;;;5052018;28;20029;-72
2021/04/11 04:14:47;;;;;;;34.42;20.42;;;256.20;1510.40;;;;;;5051144;28;20493;-74
2021/04/11 04:17:40;;;;;;;29.55;15.10;;;231.20;1536.00;;;;;;5051622;28;20035;-69
2021/04/11 04:20:16;;;;;;;25.08;12.80;;;231.00;1561.60;;;;;;5051774;28;20049;-73
2021/04/11 04:23:11;;;;;;;22.70;13.25;;;230.70;1612.80;;;;;;5049358;28;20025;-71
2021/04/11 04:25:49;;;;;;;28.52;14.90;;;230.90;1587.20;;;;;;5033641;28;20025;-72
2021/04/11 04:28:27;;;;;;;28.00;16.77;;;231.00;1561.60;;;;;;5041982;28;20021;-71
2021/04/11 04:30:56;;;;;;;33.72;17.58;;;230.80;1612.80;;;;;;5051717;28;20017;-68
2021/04/11 04:33:29;;;;;;;39.72;19.70;;;230.90;1587.20;;;;;;5051882;28;20053;-69
2021/04/11 04:36:22;;;;;;;37.22;18.17;;;231.00;1561.60;;;;;;5051544;28;20048;-69
2021/04/11 04:39:11;;;;;;;37.92;19.48;;;231.30;1561.60;;;;;;5051849;28;20172;-69
2021/04/11 04:41:51;;;;;;;40.22;22.05;;;256.00;1536.00;;;;;;4955265;28;20039;-71
2021/04/11 04:44:30;;;;;;;45.33;23.70;;;256.00;1536.00;;;;;;4971161;28;20046;-71
2021/04/11 04:47:02;;;;;;;38.70;21.45;;;231.30;1561.60;;;;;;4970576;28;20047;-68
2021/04/11 04:49:36;;;;;;;37.20;19.98;;;231.20;1561.60;;;;;;4973742;28;20054;-68
2021/04/11 04:52:08;;;;;;;37.83;20.65;;;231.10;1587.20;;;;;;4974411;28;20038;-69
2021/04/11 04:54:55;;;;;;;34.75;17.77;;;231.30;1536.00;;;;;;4974206;28;20030;-68
2021/04/11 04:57:36;;;;;;;33.35;18.33;;;231.20;1561.60;;;;;;4974110;28;20160;-68
2021/04/11 05:00:25;;;;;;;36.55;19.02;;;231.10;1612.80;;;;;;4974290;28;20038;-70
2021/04/11 05:03:12;;;;;;;30.02;16.88;;;231.20;1587.20;;;;;;4962652;28;20027;-70
2021/04/11 05:05:48;;;;;;;38.65;20.48;;;231.10;1612.80;;;;;;4957877;28;20046;-71
2021/04/11 05:08:22;;;;;;;30.38;17.30;;;231.20;1587.20;;;;;;4974237;28;20035;-70
2021/04/11 05:11:06;;;;;;;27.42;16.48;;;256.10;1587.20;;;;;;4970247;28;20078;-68
2021/04/11 05:13:38;;;;;;;28.98;18.10;;;256.10;1587.20;;;;;;4960931;28;20038;-69
2021/04/11 05:16:14;;;;;;;27.90;17.95;;;256.50;1561.60;;;;;;4963880;28;20067;-69
2021/04/11 05:18:46;;;;;;;40.05;25.40;;;256.60;1715.20;;;;;;4999376;28;20029;-68
2021/04/11 05:21:16;;;;;;;;;;;256.50;1510.40;;;;;;5055227;28;20375;-68
2021/04/11 05:23:41;;;;;;;34.25;21.52;;;256.40;1510.40;;;;;;5022625;28;20277;-67
2021/04/11 05:26:07;;;;;;;36.65;22.02;;;231.30;1587.20;;;;;;5052639;28;20029;-67
2021/04/11 05:29:05;;;;;;;40.63;23.45;;;230.90;1638.40;;;;;;5036738;28;20067;-67
2021/04/11 05:31:35;;;;;;;39.65;25.30;;;230.80;1664.00;;;;;;5048441;28;20505;-68
2021/04/11 05:34:05;;;;;;;46.75;29.00;;;230.90;1638.40;;;;;;5054476;28;20110;-68
2021/04/11 05:36:43;;;;;;;48.80;28.23;;;230.80;1664.00;;;;;;5054342;28;20032;-68
2021/04/11 05:39:16;;;;;;;47.28;28.10;;;;;;;;;;5022759;28;20033;-69
2021/04/11 05:41:46;;;;;;;38.55;24.23;;;256.40;1536.00;;;;;;5054066;28;20013;-68
2021/04/11 05:44:33;;;;;;;35.55;22.45;;;256.90;1484.80;;;;;;5054363;28;20028;-69
2021/04/11 05:47:24;;;;;;;47.05;27.88;;;281.60;1510.40;;;;;;5049925;28;20091;-69
2021/04/11 05:50:08;;;;;;;42.67;26.92;;;;;;;;;;4962656;28;20058;-70
2021/04/11 05:52:48;;;;;;;46.90;26.92;;;282.20;1484.80;;;;;;4950250;29;20093;-70
2021/04/11 05:55:17;;;;;;;57.53;36.25;;;282.40;1433.60;;;;;;4967551;28;20110;-68
2021/04/11 05:57:52;;;;;;;54.03;32.22;;;282.30;1459.20;;;;;;4965837;28;20027;-68
2021/04/11 06:00:36;;;;;;;53.55;33.15;;;282.50;1459.20;;;;;;4960033;28;20046;-68
2021/04/11 06:03:11;;;;;;;57.15;36.33;;;282.50;1433.60;;;;;;4963564;28;20035;-67
2021/04/11 06:06:10;;;;;;;65.38;38.25;;;282.50;1433.60;;;;;;4968551;28;20541;-66
2021/04/11 06:08:41;;;;;;;61.28;38.05;;;307.20;1459.20;;;;;;4970913;28;20030;-67
2021/04/11 06:11:20;;;;;;;59.70;38.80;;;307.60;1382.40;;;;;;4970361;28;20061;-68
2021/04/11 06:13:57;;;;;;;54.30;36.25;;;307.70;1382.40;;;;;;4971434;28;20034;-68
2021/04/11 06:16:26;;;;;;;51.97;34.00;;;;;;;;;;4972002;28;20049;-69
2021/04/11 06:18:53;;;;;;;59.72;38.97;;;;;;;;;;4971718;28;20050;-70
2021/04/11 06:21:37;;;;;;;81.07;42.30;;;;;;;;;;4972350;28;20148;-70
2021/04/11 06:24:21;;;;;;;60.95;38.08;;;;;;;;;;4969944;28;20175;-74
2021/04/11 06:26:56;;;;;;;62.22;38.47;;;333.20;1382.40;;;;;;5002949;28;20053;-74
2021/04/11 06:29:26;;;;;;;67.18;38.97;;;333.20;1382.40;;;;;;5036206;28;20014;-72
2021/04/11 06:32:03;;;;;;;162.93;94.70;;;333.20;1382.40;;;;;;5034027;28;20060;-74
2021/04/11 06:34:41;;;;;;;117.65;67.90;;;333.30;1356.80;;;;;;5049867;28;20029;-72
2021/04/11 06:37:13;;;;;;;75.38;44.03;;;333.40;1356.80;;;;;;5053236;28;20083;-72
2021/04/11 06:39:42;;;;;;;71.75;44.85;;;333.50;1356.80;;;;;;5053096;28;20025;-72
2021/04/11 06:42:17;;;;;;;102.55;62.33;;;333.60;1331.20;;;;;;5052764;28;20025;-74
2021/04/11 06:44:56;;;;;;;67.70;45.95;;;358.40;1331.20;;;;;;5045738;28;20021;-70
2021/04/11 06:47:55;;;;;;;123.43;71.00;;;358.50;1280.00;;;;;;5050456;28;20104;-72
2021/04/11 06:50:35;;;;;;;123.97;73.60;;;358.60;1280.00;;;;;;5052537;28;20043;-71
2021/04/11 06:53:35;;;;;;;99.03;59.15;;;358.80;1254.40;;;;;;5052759;28;20036;-71
2021/04/11 06:56:31;;;;;;;99.93;62.38;;;359.00;1254.40;;;;;;5049498;28;20021;-70
2021/04/11 06:59:09;;;;;;;48.58;32.42;;;359.10;1228.80;;;;;;5025197;28;20033;-71
2021/04/11 07:01:56;;;;;;;53.72;33.13;;;359.20;1203.20;;;;;;5053151;28;20115;-67
2021/04/11 07:04:55;;;;;;;46.33;30.40;;;384.00;1203.20;;;;;;5041382;28;20024;-76
2021/04/11 07:07:59;;;;;;;85.78;51.28;;;384.40;1177.60;;;;;;5052540;28;20490;-76
2021/04/11 07:10:53;;;;;;;91.93;51.40;;;384.70;1152.00;;;;;;5052243;28;20505;-79
2021/04/11 07:13:19;;;;;;;60.53;38.97;;;409.60;1177.60;;;;;;5052092;28;20033;-64
2021/04/11 07:16:46;;;;;;;76.00;42.50;;;409.70;1126.40;;;;;;5052695;28;20096;-73
2021/04/11 07:19:17;;;;;;;71.32;39.30;;;;;;;;;;4969709;28;20045;-64
2021/04/11 07:22:12;;;;;;;45.85;28.98;;;;;;;;;;4991252;28;20026;-68
2021/04/11 07:25:03;;;;;;;40.85;26.17;;;410.40;1100.80;;;;;;4963424;28;20117;-64
2021/04/11 07:27:38;;;;;;;40.63;25.40;;;410.30;1126.40;;;;;;4942748;28;20048;-64
2021/04/11 07:30:13;;;;;;;41.97;25.73;;;410.30;1126.40;;;;;;4948684;28;20437;-66
2021/04/11 07:32:47;;;;;;;44.28;28.17;;;410.40;1152.00;;;;;;4940398;28;20050;-66
2021/04/11 07:35:46;;;;;;;51.58;28.70;;;435.30;1126.40;;;;;;4935583;28;20036;-67
2021/04/11 07:38:26;;;;;;;43.72;27.20;;;435.60;1126.40;;;;;;4936902;28;20027;-64
2021/04/11 07:41:03;;;;;;;68.50;42.50;;;435.90;1100.80;;;;;;4943298;28;20410;-65
2021/04/11 07:43:47;;;;;;;77.70;51.85;;;435.90;1126.40;;;;;;4948823;28;20110;-70
2021/04/11 07:46:40;;;;;;;64.13;39.40;;;435.90;1126.40;;;;;;4952460;28;20062;-68
2021/04/11 07:49:27;;;;;;;71.10;41.88;;;436.10;1100.80;;;;;;4939330;28;20450;-68
2021/04/11 07:52:25;;;;;;;61.53;40.05;;;460.80;1152.00;;;;;;4945431;28;20543;-73
2021/04/11 07:54:56;;;;;;;53.65;30.33;;;460.90;1126.40;;;;;;5010999;28;20611;-84
2021/04/11 07:57:31;;;;;;;84.00;46.78;;;461.20;1126.40;;;;;;5008761;28;20121;-64
2021/04/11 08:00:26;;;;;;;65.40;37.05;;;461.40;1075.20;;;;;;5002598;28;20575;-65
2021/04/11 08:03:43;;;;;;;29.90;19.13;;;461.40;1100.80;;;;;;5034211;28;20045;-66
2021/04/11 08:06:38;;;;;;;40.17;25.95;;;461.70;1049.60;;;;;;4979099;28;20050;-65
2021/04/11 08:09:07;;;;;;;29.70;16.63;;;;;;;;;;4975907;28;20026;-67
2021/04/11 08:11:39;;;;;;;37.63;20.40;;;;;;;;;;4972136;28;20019;-66
2021/04/11 08:14:24;;;;;;;58.35;32.53;;;;;;;;;;4978577;28;20041;-66
2021/04/11 08:16:52;;;;;;;34.40;16.58;;;;;;;;;;4990460;28;20065;-65
2021/04/11 08:19:37;;;;;;;31.40;16.88;;;;;;;;;;4973793;28;20038;-66
2021/04/11 08:22:09;;;;;;;28.83;19.25;;;;;;;;;;4974969;28;20046;-69
2021/04/11 08:24:45;;;;;;;34.10;20.20;;;;;;;;;;4986257;28;20528;-70
2021/04/11 08:27:44;;;;;;;38.45;21.58;;;512.90;819.20;;;;;;4979670;28;20129;-62
2021/04/11 08:30:16;;;;;;;32.17;22.55;;;512.90;819.20;;;;;;4975861;28;20061;-65
2021/04/11 08:33:06;;;;;;;15.00;9.05;;;512.90;793.60;;;;;;4977598;28;20489;-64
2021/04/11 08:35:52;;;;;;;15.10;9.93;;;512.80;819.20;;;;;;4994148;28;20038;-65
2021/04/11 08:38:39;;;;;;;22.83;14.32;;;537.60;819.20;;;;;;4994185;28;20022;-72
2021/04/11 08:41:29;;;;;;;24.40;14.52;;;512.90;793.60;;;;;;5004389;28;20044;-65
2021/04/11 08:44:31;;;;;;;29.70;18.13;;;512.90;793.60;;;;;;5041601;28;20027;-65
2021/04/11 08:47:30;;;;;;;19.40;11.63;;;538.00;793.60;;;;;;5037200;28;20616;-65
2021/04/11 08:49:58;;;;;;;24.23;11.57;;;538.10;793.60;;;;;;5041077;28;20039;-65
2021/04/11 08:52:49;;;;;;;15.55;10.90;;;563.30;742.40;;;;;;5055358;28;20070;-65
2021/04/11 08:55:20;;;;;;;12.70;7.82;;;538.50;768.00;;;;;;5054939;28;20017;-66
2021/04/11 08:58:17;;;;;;;22.20;14.80;;;563.50;716.80;;;;;;5055052;28;20372;-66
2021/04/11 09:01:16;;;;;;;82.70;51.03;;;563.40;742.40;;;;;;5055153;28;20104;-65
2021/04/11 09:03:58;;;;;;;24.05;11.77;;;563.50;742.40;;;;;;4974043;28;20038;-66
2021/04/11 09:06:26;;;;;;;12.07;6.25;;;563.70;716.80;;;;;;4958414;28;20039;-85
2021/04/11 09:09:18;;;;;;;26.23;14.10;;;563.90;716.80;;;;;;4974914;28;20057;-83
2021/04/11 09:12:11;;;;;;;12.38;8.18;;;563.90;742.40;;;;;;4974704;28;20073;-66
2021/04/11 09:15:14;;;;;;;12.55;7.80;;;564.00;742.40;;;;;;4974149;28;20125;-65
2021/04/11 09:17:58;;;;;;;18.00;11.18;;;588.80;691.20;;;;;;4957944;28;20076;-71
2021/04/11 09:20:38;;;;;;;20.73;14.23;;;589.00;691.20;;;;;;4973799;28;20163;-84
2021/04/11 09:23:23;;;;;;;19.73;15.95;;;589.20;665.60;;;;;;4958487;28;20067;-67
2021/04/11 09:26:06;;;;;;;8.85;5.78;;;589.60;640.00;;;;;;4973798;28;20569;-85
2021/04/11 09:29:05;;;;;;;17.48;9.02;;;614.60;588.80;;;;;;4972969;28;20033;-78
2021/04/11 09:32:00;;;;;;;12.45;7.35;;;614.60;588.80;;;;;;4968791;28;20029;-66
2021/04/11 09:34:50;;;;;;;62.25;37.28;;;615.00;563.20;;;;;;4973007;28;20035;-73
2021/04/11 09:37:30;;;;;;;21.55;11.65;;;615.30;563.20;;;;;;4965246;28;20023;-74
2021/04/11 09:39:55;;;;;;;16.40;11.20;;;640.50;537.60;;;;;;5007281;28;20047;-66
2021/04/11 09:42:28;;;;;;;14.85;10.38;;;640.20;537.60;;;;;;5045683;28;20096;-74
2021/04/11 09:45:20;;;;;;;7.97;4.28;;;640.20;563.20;;;;;;5054234;28;20033;-65
2021/04/11 09:48:06;;;;;;;10.93;7.43;;;640.20;537.60;;;;;;5054268;28;20429;-72
2021/04/11 09:50:46;;;;;;;21.55;14.32;;;640.40;537.60;;;;;;5053898;28;20041;-67
2021/04/11 09:53:36;;;;;;;49.80;31.80;;;615.20;691.20;;;;;;5054273;28;20025;-66
2021/04/11 09:56:27;;;;;;;15.27;11.15;;;614.90;614.40;;;;;;5050086;28;20036;-66
2021/04/11 09:59:10;;;;;;;15.30;10.48;;;614.60;588.80;;;;;;5053946;28;20092;-66
2021/04/11 10:02:06;;;;;;;14.77;8.15;;;589.70;588.80;;;;;;5054034;28;20053;-66
2021/04/11 10:04:56;;;;;;;10.68;6.82;;;589.40;640.00;;;;;;5041875;28;20028;-83
2021/04/11 10:07:34;;;;;;;11.38;6.53;;;589.30;563.20;;;;;;5053876;28;20086;-66
2021/04/11 10:10:11;;;;;;;22.65;12.63;;;589.20;588.80;;;;;;5053727;28;20021;-65
2021/04/11 10:12:43;;;;;;;23.00;15.57;;;589.00;588.80;;;;;;5054222;28;20041;-78
2021/04/11 10:15:29;;;;;;;16.60;8.45;;;588.90;640.00;;;;;;5053674;28;20048;-64
2021/04/11 10:18:34;;;;;;;16.27;9.35;;;588.80;819.20;;;;;;5053696;28;20074;-67
2021/04/11 10:21:32;;;;;;;9.15;6.03;;;588.80;640.00;;;;;;5053496;28;20487;-67
2021/04/11 10:24:34;;;;;;;11.13;6.18;;;564.10;614.40;;;;;;5046179;28;20025;-65
2021/04/11 10:27:18;;;;;;;13.85;7.03;;;563.80;614.40;;;;;;5044512;28;20033;-70
2021/04/11 10:29:46;;;;;;;15.73;9.20;;;563.70;640.00;;;;;;5053387;28;20017;-67
2021/04/11 10:32:33;;;;;;;9.82;7.47;;;563.70;640.00;;;;;;5053640;28;20036;-69
2021/04/11 10:35:07;;;;;;;9.00;5.82;;;563.70;665.60;;;;;;5039723;28;20076;-65
2021/04/11 10:37:50;;;;;;;10.57;8.07;;;563.60;665.60;;;;;;5053385;28;20036;-68
2021/04/11 10:40:42;;;;;;;15.52;11.60;;;563.60;640.00;;;;;;5065224;28;20036;-65
2021/04/11 10:43:47;;;;;;;16.95;13.82;;;563.80;640.00;;;;;;4972212;28;20046;-70
2021/04/11 10:46:29;;;;;;;10.48;5.30;;;563.90;614.40;;;;;;4971332;28;20066;-69
2021/04/11 10:49:19;;;;;;;11.20;5.97;;;563.80;588.80;;;;;;4971617;28;20045;-67
2021/04/11 10:52:05;;;;;;;9.05;6.95;;;564.10;640.00;;;;;;4972368;28;20058;-79
2021/04/11 10:55:01;;;;;;;7.65;5.00;;;564.10;614.40;;;;;;4971470;28;20042;-73
2021/04/11 10:57:47;;;;;;;11.32;5.70;;;589.10;588.80;;;;;;4972219;28;20023;-70
2021/04/11 11:00:28;;;;;;;7.03;4.70;;;589.00;588.80;;;;;;4955901;28;20077;-82
2021/04/11 11:03:18;;;;;;;8.25;4.97;;;588.90;614.40;;;;;;4972638;28;20117;-77
2021/04/11 11:05:55;;;;;;;11.20;6.05;;;588.90;588.80;;;;;;4974036;28;20038;-82
2021/04/11 11:08:34;;;;;;;6.82;4.70;;;588.80;614.40;;;;;;4956401;28;20045;-83
2021/04/11 11:11:25;;;;;;;8.05;5.10;;;564.10;563.20;;;;;;4972035;28;20102;-65
2021/04/11 11:14:06;;;;;;;7.68;5.57;;;564.10;614.40;;;;;;4968083;28;20041;-65
2021/04/11 11:17:08;;;;;;;8.23;5.82;;;564.10;614.40;;;;;;4972100;28;20022;-82
2021/04/11 11:20:04;;;;;;;9.25;5.10;;;564.10;614.40;;;;;;4982001;28;20034;-82
2021/04/11 11:23:00;;;;;;;6.90;4.78;;;563.90;614.40;;;;;;5028499;28;20078;-82
2021/04/11 11:25:45;;;;;;;8.88;6.38;;;564.00;640.00;;;;;;5032427;28;20430;-69
2021/04/11 11:28:13;;;;;;;9.30;5.82;;;564.00;640.00;;;;;;5019443;28;20087;-82
2021/04/11 11:30:57;;;;;;;12.05;5.65;;;564.10;640.00;;;;;;5032767;28;20021;-82
2021/04/11 11:33:46;;;;;;;7.15;5.45;;;588.80;614.40;;;;;;5020180;28;20053;-83
2021/04/11 11:36:27;;;;;;;8.43;6.18;;;589.00;640.00;;;;;;5032576;28;20095;-66
2021/04/11 11:39:06;;;;;;;9.85;6.82;;;589.30;588.80;;;;;;5032635;28;20037;-83
2021/04/11 11:41:35;;;;;;;13.43;10.52;;;589.70;563.20;;;;;;5032500;28;20108;-83
2021/04/11 11:44:06;;;;;;;8.55;6.72;;;614.80;563.20;;;;;;5032859;28;20110;-83
2021/04/11 11:47:09;;;;;;;5.97;4.20;;;614.60;537.60;;;;;;5032707;28;20041;-68
2021/04/11 11:49:53;;;;;;;6.00;4.13;;;614.50;512.00;;;;;;5029721;28;20048;-69
2021/04/11 11:53:05;;;;;;;6.20;4.65;;;614.50;537.60;;;;;;5052637;28;20033;-67
2021/04/11 11:55:40;;;;;;;5.50;4.47;;;589.70;512.00;;;;;;4964059;28;20110;-67
2021/04/11 11:58:20;;;;;;;10.95;6.90;;;589.50;537.60;;;;;;4971328;28;20085;-71
2021/04/11 12:01:13;;;;;;;8.55;5.53;;;589.50;563.20;;;;;;4971761;28;20027;-82
2021/04/11 12:03:40;;;;;;;8.65;5.53;;;589.60;537.60;;;;;;4933362;29;20487;-84
2021/04/11 12:06:32;;;;;;;5.68;3.75;;;614.70;486.40;;;;;;4933671;29;20055;-86
2021/04/11 12:09:21;;;;;;;5.80;3.78;;;615.00;460.80;;;;;;4934965;29;20032;-83
2021/04/11 12:11:49;;;;;;;5.53;3.20;;;640.30;384.00;;;;;;4934754;29;20171;-79
2021/04/11 12:14:33;;;;;;;5.63;3.00;;;640.50;384.00;;;;;;4936107;29;20028;-82
2021/04/11 12:17:03;;;;;;;8.55;6.57;;;640.50;384.00;;;;;;4936936;29;20122;-75
2021/04/11 12:19:48;;;;;;;13.38;8.18;;;640.30;384.00;;;;;;4935089;29;20034;-71
2021/04/11 12:22:38;;;;;;;8.10;4.45;;;640.20;409.60;;;;;;4932403;29;20539;-67
2021/04/11 12:25:18;;;;;;;9.18;7.53;;;640.00;435.20;;;;;;4932376;29;20036;-66
2021/04/11 12:27:44;;;;;;;17.30;11.70;;;640.00;409.60;;;;;;4932522;29;20104;-69
2021/04/11 12:30:17;;;;;;;15.20;9.73;;;615.30;409.60;;;;;;4990814;28;20042;-65
2021/04/11 12:33:13;;;;;;;11.68;7.13;;;640.00;435.20;;;;;;5009831;28;20113;-80
2021/04/11 12:36:12;;;;;;;13.45;5.03;;;615.30;435.20;;;;;;5009936;28;20030;-66
2021/04/11 12:38:54;;;;;;;4.97;3.13;;;615.20;435.20;;;;;;5010194;28;20022;-67
2021/04/11 12:41:32;;;;;;;6.35;4.00;;;615.00;460.80;;;;;;5046016;28;20072;-66
2021/04/11 12:44:25;;;;;;;19.33;10.40;;;615.00;435.20;;;;;;5038217;28;20057;-66
2021/04/11 12:47:01;;;;;;;18.10;11.90;;;615.10;435.20;;;;;;5051401;28;20037;-66
2021/04/11 12:49:42;;;;;;;11.27;8.93;;;615.10;435.20;;;;;;5051610;28;20479;-66
2021/04/11 12:52:43;;;;;;;10.93;7.28;;;615.00;460.80;;;;;;5051422;28;20032;-66
2021/04/11 12:55:20;;;;;;;9.70;5.25;;;614.80;512.00;;;;;;5051128;28;20038;-70
2021/04/11 12:58:25;;;;;;;8.65;4.30;;;614.60;537.60;;;;;;5051677;28;20025;-66
2021/04/11 13:01:08;;;;;;;7.90;4.57;;;589.60;512.00;;;;;;5033657;28;20024;-68
2021/04/11 13:03:50;;;;;;;7.05;4.60;;;589.40;537.60;;;;;;5051617;28;20025;-66
2021/04/11 13:06:32;;;;;;;11.95;6.18;;;589.30;537.60;;;;;;5039582;28;20387;-70
2021/04/11 13:09:28;;;;;;;9.90;5.13;;;589.10;537.60;;;;;;5052040;28;20017;-75
2021/04/11 13:12:03;;;;;;;9.70;5.30;;;589.00;512.00;;;;;;5055053;28;20033;-82
2021/04/11 13:14:32;;;;;;;6.90;4.20;;;588.90;563.20;;;;;;5055142;28;20386;-75
2021/04/11 13:17:20;;;;;;;7.55;4.47;;;564.10;537.60;;;;;;5054806;28;20425;-70